KBRD/BRD METAR and TAF weather

Enter ICAO airport designator
Station Type Date Time Source
KBRD METAR 2021/09/25 11:53 UTC NOAA

KBRD 251153Z AUTO 26008KT 10SM CLR 08/03 A2992 RMK AO2 SLP136 70023 T00830028 10083 20039 53004 TSNO


Station Type Date Time Source
KBRD Decoded METAR 2021/09/25 11:53 UTC NOAA

BRAINERD-CROW WING CO AIRPORT , MN, United States (KBRD) 46-24N 94-08W 372M
Sep 25, 2021 - 07:53 AM EDT / 2021.09.25 1153 UTC
Wind: from the W (260 degrees) at 9 MPH (8 KT):0
Visibility: 10 mile(s):0
Sky conditions: clear
Temperature: 46.9 F (8.3 C)
Dew Point: 37.0 F (2.8 C)
Relative Humidity: 68%
Pressure (altimeter): 29.92 in. Hg (1013 hPa)
Pressure tendency: 0.01 inches (0.4 hPa) higher than three hours ago
ob: KBRD 251153Z AUTO 26008KT 10SM CLR 08/03 A2992 RMK AO2 SLP136 70023 T00830028 10083 20039 53004 TSNO
cycle: 12

Station Type Date Time Source
KBRD TAF 2021/09/25 12:36 UTC NOAA

TAF KBRD 251134Z 2512/2612 26006KT P6SM BKN070
FM251500 27008G15KT P6SM BKN080
FM252300 24008KT P6SM SCT090

Example: see airport list